createdAt,value
2023-08-08T00:00:01.462Z,15.23
2023-08-08T00:01:03.980Z,15.24
2023-08-08T00:02:07.092Z,15.21
2023-08-08T00:03:10.260Z,15.18
2023-08-08T00:04:12.649Z,15.23
2023-08-08T00:05:14.986Z,15.16
2023-08-08T00:06:17.284Z,15.11
2023-08-08T00:07:19.892Z,15.13
2023-08-08T00:08:22.313Z,15.12
2023-08-08T00:09:24.702Z,15.14
2023-08-08T00:10:27.170Z,15.11
2023-08-08T00:11:29.369Z,15.15
2023-08-08T00:12:31.846Z,15.14
2023-08-08T00:13:34.325Z,15.10
2023-08-08T00:14:36.520Z,14.98
2023-08-08T00:15:38.981Z,14.92
2023-08-08T00:16:41.173Z,14.94
2023-08-08T00:17:43.630Z,14.95
2023-08-08T00:18:46.261Z,15.01
2023-08-08T00:19:48.473Z,15.00
2023-08-08T00:20:51.033Z,15.09
2023-08-08T00:21:53.227Z,15.00
2023-08-08T00:22:55.449Z,15.01
2023-08-08T00:23:58.019Z,15.03
2023-08-08T00:25:00.276Z,14.96
2023-08-08T00:26:02.521Z,14.93
2023-08-08T00:27:05.079Z,14.87
2023-08-08T00:28:07.379Z,14.83
2023-08-08T00:29:10.167Z,14.84
2023-08-08T00:30:16.463Z,14.77
2023-08-08T00:31:20.924Z,14.71
2023-08-08T00:32:23.590Z,14.76
2023-08-08T00:33:25.836Z,14.73
2023-08-08T00:34:28.084Z,14.79
2023-08-08T00:35:30.810Z,14.80
2023-08-08T00:36:33.079Z,14.71
2023-08-08T00:37:35.425Z,14.70
2023-08-08T00:38:37.993Z,14.69
2023-08-08T00:39:43.494Z,14.73
2023-08-08T00:40:47.383Z,14.66
2023-08-08T00:41:49.762Z,14.59
2023-08-08T00:42:52.025Z,14.63
2023-08-08T00:43:54.418Z,14.67
2023-08-08T00:45:02.932Z,14.65
2023-08-08T00:46:05.380Z,14.67
2023-08-08T00:47:10.400Z,14.61
2023-08-08T00:48:12.938Z,14.63
2023-08-08T00:49:15.518Z,14.64
2023-08-08T00:50:19.151Z,14.65
2023-08-08T00:51:22.507Z,14.65
2023-08-08T00:52:24.841Z,14.64
2023-08-08T00:53:29.368Z,14.65
2023-08-08T00:54:32.259Z,14.52
2023-08-08T00:55:34.940Z,14.44
2023-08-08T00:56:38.661Z,14.45
2023-08-08T00:57:41.593Z,14.59
2023-08-08T00:58:46.873Z,14.58
2023-08-08T00:59:49.498Z,14.49
2023-08-08T01:00:53.548Z,14.50
2023-08-08T01:01:58.439Z,14.51
2023-08-08T01:03:00.940Z,14.43
2023-08-08T01:04:07.518Z,14.33
2023-08-08T01:05:10.538Z,14.33
2023-08-08T01:06:35.160Z,14.38
2023-08-08T01:07:49.278Z,14.43
2023-08-08T01:09:01.095Z,14.45
2023-08-08T01:10:18.083Z,14.47
2023-08-08T01:11:20.575Z,14.45
2023-08-08T01:12:24.625Z,14.45
2023-08-08T01:13:31.560Z,14.45
2023-08-08T01:14:36.894Z,14.47
2023-08-08T01:15:39.641Z,14.41
2023-08-08T01:16:44.013Z,14.40
2023-08-08T01:17:48.423Z,14.35
2023-08-08T01:18:51.557Z,14.20
2023-08-08T01:19:54.526Z,14.21
2023-08-08T01:20:57.941Z,14.14
2023-08-08T01:22:05.478Z,14.20
2023-08-08T01:23:17.590Z,14.27
2023-08-08T01:24:21.122Z,14.27
2023-08-08T01:25:24.468Z,14.34
2023-08-08T01:26:27.885Z,14.38
2023-08-08T01:27:30.325Z,14.35
2023-08-08T01:28:32.558Z,14.36
2023-08-08T01:29:35.161Z,14.38
2023-08-08T01:30:38.047Z,14.34
2023-08-08T01:31:40.297Z,14.39
2023-08-08T01:32:42.504Z,14.43
2023-08-08T01:33:45.049Z,14.33
2023-08-08T01:34:47.562Z,14.37
2023-08-08T01:36:02.030Z,14.30
2023-08-08T01:37:19.048Z,14.28
2023-08-08T01:38:42.967Z,14.32
2023-08-08T01:39:47.962Z,14.25
2023-08-08T01:40:50.794Z,14.27
2023-08-08T01:41:55.030Z,14.31
2023-08-08T01:42:57.707Z,14.35
2023-08-08T01:44:01.593Z,14.43
2023-08-08T01:45:05.224Z,14.45
2023-08-08T01:46:08.648Z,14.46
2023-08-08T01:47:11.200Z,14.46
2023-08-08T01:48:13.586Z,14.46
2023-08-08T01:49:16.346Z,14.50
2023-08-08T01:50:19.153Z,14.41
2023-08-08T01:51:21.358Z,14.36
2023-08-08T01:52:24.030Z,14.33
2023-08-08T01:53:26.326Z,14.28
2023-08-08T01:54:28.960Z,14.30
2023-08-08T01:55:32.465Z,14.33
2023-08-08T01:56:34.725Z,14.42
2023-08-08T01:57:37.127Z,14.30
2023-08-08T01:58:39.421Z,14.45
2023-08-08T01:59:41.727Z,14.53
2023-08-08T02:00:46.222Z,14.58
2023-08-08T02:01:48.437Z,14.60
2023-08-08T02:02:50.972Z,14.57
2023-08-08T02:03:53.766Z,14.52
2023-08-08T02:04:57.893Z,14.52
2023-08-08T02:06:01.721Z,14.56
2023-08-08T02:07:04.165Z,14.63
2023-08-08T02:08:07.180Z,14.60
2023-08-08T02:09:11.367Z,14.49
2023-08-08T02:10:13.819Z,14.41
2023-08-08T02:11:16.115Z,14.51
2023-08-08T02:12:18.511Z,14.54
2023-08-08T02:13:20.712Z,14.54
2023-08-08T02:14:24.135Z,14.52
2023-08-08T02:15:26.562Z,14.49
2023-08-08T02:16:28.939Z,14.33
2023-08-08T02:17:31.493Z,14.27
2023-08-08T02:18:33.813Z,14.23
2023-08-08T02:19:37.643Z,14.24
2023-08-08T02:20:40.342Z,14.24
2023-08-08T02:21:42.568Z,14.15
2023-08-08T02:22:46.118Z,14.25
2023-08-08T02:23:48.581Z,14.29
2023-08-08T02:24:51.227Z,14.35
2023-08-08T02:25:54.384Z,14.43
2023-08-08T02:26:57.156Z,14.43
2023-08-08T02:27:59.372Z,14.41
2023-08-08T02:29:01.893Z,14.32
2023-08-08T02:30:07.462Z,14.38
2023-08-08T02:31:09.974Z,14.41
2023-08-08T02:32:15.162Z,14.42
2023-08-08T02:33:17.387Z,14.37
2023-08-08T02:34:19.621Z,14.31
2023-08-08T02:35:22.060Z,14.26
2023-08-08T02:36:24.527Z,14.15
2023-08-08T02:37:26.884Z,14.22
2023-08-08T02:38:29.382Z,14.17
2023-08-08T02:39:31.762Z,14.28
2023-08-08T02:40:34.860Z,14.22
2023-08-08T02:41:37.584Z,14.16
2023-08-08T02:42:39.821Z,14.26
2023-08-08T02:43:43.174Z,14.37
2023-08-08T02:44:45.562Z,14.32
2023-08-08T02:45:48.029Z,14.35
2023-08-08T02:46:50.342Z,14.44
2023-08-08T02:47:52.591Z,14.42
2023-08-08T02:48:55.110Z,14.42
2023-08-08T02:49:57.568Z,14.40
2023-08-08T02:51:00.298Z,14.30
2023-08-08T02:52:03.996Z,14.31
2023-08-08T02:53:09.530Z,14.21
2023-08-08T02:54:17.713Z,14.13
2023-08-08T02:55:20.287Z,14.00
2023-08-08T02:56:25.934Z,14.02
2023-08-08T02:57:29.435Z,13.98
2023-08-08T02:58:32.168Z,14.04
2023-08-08T02:59:35.646Z,14.05
2023-08-08T03:00:41.196Z,14.08
2023-08-08T03:01:48.742Z,14.11
2023-08-08T03:02:53.828Z,14.21
2023-08-08T03:03:56.499Z,14.20
2023-08-08T03:05:00.894Z,14.13
2023-08-08T03:06:04.902Z,14.13
2023-08-08T03:07:07.661Z,14.18
2023-08-08T03:08:12.074Z,14.19
2023-08-08T03:09:14.531Z,14.21
2023-08-08T03:10:17.878Z,14.22
2023-08-08T03:11:20.768Z,14.23
2023-08-08T03:12:24.269Z,14.30
2023-08-08T03:13:28.530Z,14.35
2023-08-08T03:14:32.025Z,14.33
2023-08-08T03:15:37.034Z,14.24
2023-08-08T03:16:41.000Z,14.13
2023-08-08T03:17:44.655Z,14.11
2023-08-08T03:18:47.088Z,14.14
2023-08-08T03:19:50.459Z,14.17
2023-08-08T03:20:53.399Z,14.16
2023-08-08T03:21:56.774Z,14.05
2023-08-08T03:22:59.039Z,13.97
2023-08-08T03:24:01.305Z,13.99
2023-08-08T03:25:05.405Z,14.02
2023-08-08T03:26:07.872Z,14.04
2023-08-08T03:27:11.359Z,13.99
2023-08-08T03:28:14.108Z,13.98
2023-08-08T03:29:16.330Z,13.98
2023-08-08T03:30:23.117Z,14.06
2023-08-08T03:31:27.417Z,14.10
2023-08-08T03:32:30.760Z,14.07
2023-08-08T03:33:33.005Z,13.91
2023-08-08T03:34:37.835Z,13.86
2023-08-08T03:35:40.808Z,13.82
2023-08-08T03:36:43.650Z,13.91
2023-08-08T03:37:46.723Z,14.05
2023-08-08T03:38:49.058Z,14.05
2023-08-08T03:39:51.485Z,14.01
2023-08-08T03:40:53.932Z,13.88
2023-08-08T03:41:56.446Z,13.91
2023-08-08T03:42:58.676Z,13.99
2023-08-08T03:44:00.968Z,13.91
2023-08-08T03:45:03.752Z,13.93
2023-08-08T03:46:06.611Z,13.87
2023-08-08T03:47:18.489Z,13.92
2023-08-08T03:48:22.365Z,13.91
2023-08-08T03:49:24.947Z,13.92
2023-08-08T03:50:27.366Z,13.92
2023-08-08T03:51:29.795Z,13.91
2023-08-08T03:52:35.420Z,13.96
2023-08-08T03:53:38.089Z,14.00
2023-08-08T03:54:41.717Z,14.00
2023-08-08T03:55:44.264Z,13.94
2023-08-08T03:56:47.129Z,13.99
2023-08-08T03:57:49.571Z,13.99
2023-08-08T03:58:51.848Z,14.01
2023-08-08T03:59:54.123Z,14.05
2023-08-08T04:00:57.973Z,14.17
2023-08-08T04:02:00.940Z,14.17
2023-08-08T04:03:03.458Z,14.15
2023-08-08T04:04:06.749Z,14.04
2023-08-08T04:05:09.763Z,14.05
2023-08-08T04:06:12.056Z,14.10
2023-08-08T04:07:14.765Z,14.16
2023-08-08T04:08:19.174Z,14.12
2023-08-08T04:09:23.445Z,14.00
2023-08-08T04:10:25.729Z,14.03
2023-08-08T04:11:27.986Z,14.06
2023-08-08T04:12:30.744Z,14.12
2023-08-08T04:13:32.999Z,14.09
2023-08-08T04:14:35.292Z,14.01
2023-08-08T04:15:37.722Z,14.06
2023-08-08T04:16:40.743Z,14.14
2023-08-08T04:17:43.118Z,14.17
2023-08-08T04:18:45.308Z,14.11
2023-08-08T04:19:47.592Z,14.06
2023-08-08T04:20:50.034Z,14.06
2023-08-08T04:21:52.472Z,14.15
2023-08-08T04:22:54.695Z,14.15
2023-08-08T04:23:56.936Z,14.14
2023-08-08T04:24:59.141Z,14.08
2023-08-08T04:26:01.618Z,14.02
2023-08-08T04:27:04.981Z,14.07
2023-08-08T04:28:07.291Z,14.21
2023-08-08T04:29:09.729Z,14.27
2023-08-08T04:30:12.086Z,14.20
2023-08-08T04:31:15.205Z,14.23
2023-08-08T04:32:17.843Z,14.17
2023-08-08T04:33:20.059Z,14.19
2023-08-08T04:34:22.336Z,14.23
2023-08-08T04:35:24.565Z,14.25
2023-08-08T04:36:30.337Z,14.21
2023-08-08T04:37:32.772Z,14.21
2023-08-08T04:38:35.076Z,14.19
2023-08-08T04:39:37.267Z,14.13
2023-08-08T04:40:39.759Z,14.21
2023-08-08T04:41:42.010Z,14.16
2023-08-08T04:42:44.457Z,14.17
2023-08-08T04:43:46.725Z,14.24
2023-08-08T04:44:48.929Z,14.27
2023-08-08T04:45:52.228Z,14.33
2023-08-08T04:46:54.856Z,14.33
2023-08-08T04:47:57.089Z,14.24
2023-08-08T04:48:59.359Z,14.25
2023-08-08T04:50:01.830Z,14.16
2023-08-08T04:51:06.374Z,14.16
2023-08-08T04:52:09.076Z,14.20
2023-08-08T04:53:11.328Z,14.22
2023-08-08T04:54:13.555Z,14.25
2023-08-08T04:55:16.068Z,14.17
2023-08-08T04:56:18.278Z,14.14
2023-08-08T04:57:20.702Z,14.04
2023-08-08T04:58:23.078Z,14.00
2023-08-08T04:59:25.266Z,13.95
2023-08-08T05:00:27.760Z,14.03
2023-08-08T05:01:30.074Z,14.09
2023-08-08T05:02:32.437Z,14.16
2023-08-08T05:03:34.823Z,14.18
2023-08-08T05:04:40.441Z,14.14
2023-08-08T05:05:42.718Z,14.09
2023-08-08T05:06:45.434Z,14.06
2023-08-08T05:07:47.865Z,14.07
2023-08-08T05:08:52.522Z,14.21
2023-08-08T05:09:55.027Z,14.24
2023-08-08T05:10:57.461Z,14.25
2023-08-08T05:12:00.069Z,14.30
2023-08-08T05:13:02.906Z,14.33
2023-08-08T05:14:05.424Z,14.39
2023-08-08T05:15:11.108Z,14.36
2023-08-08T05:16:13.359Z,14.43
2023-08-08T05:17:15.606Z,14.41
2023-08-08T05:18:18.238Z,14.42
2023-08-08T05:19:20.510Z,14.37
2023-08-08T05:20:23.373Z,14.52
2023-08-08T05:21:25.660Z,14.58
2023-08-08T05:22:27.904Z,14.54
2023-08-08T05:23:30.523Z,14.54
2023-08-08T05:24:32.823Z,14.58
2023-08-08T05:25:35.039Z,14.73
2023-08-08T05:26:37.571Z,14.85
2023-08-08T05:27:39.977Z,14.92
2023-08-08T05:28:42.744Z,15.05
2023-08-08T05:29:45.071Z,15.08
2023-08-08T05:30:47.551Z,15.14
2023-08-08T05:31:50.119Z,15.30
2023-08-08T05:32:52.617Z,15.44
2023-08-08T05:33:55.141Z,15.58
2023-08-08T05:34:58.898Z,15.67
2023-08-08T05:36:01.259Z,15.71
2023-08-08T05:37:15.988Z,15.68
2023-08-08T05:38:19.911Z,15.54
2023-08-08T05:39:22.320Z,15.47
2023-08-08T05:40:25.087Z,15.49
2023-08-08T05:41:27.472Z,15.57
2023-08-08T05:42:30.698Z,15.64
2023-08-08T05:43:32.915Z,15.72
2023-08-08T05:44:35.193Z,15.68
2023-08-08T05:45:37.769Z,15.81
2023-08-08T05:46:40.040Z,15.84
2023-08-08T05:47:42.546Z,15.95
2023-08-08T05:48:46.322Z,15.91
2023-08-08T05:49:49.885Z,15.97
2023-08-08T05:50:52.516Z,16.07
2023-08-08T05:51:54.757Z,16.13
2023-08-08T05:52:57.014Z,16.16
2023-08-08T05:54:00.375Z,16.09
2023-08-08T05:55:06.514Z,16.15
2023-08-08T05:56:09.968Z,16.23
2023-08-08T05:57:12.556Z,16.35
2023-08-08T05:58:15.023Z,16.48
2023-08-08T05:59:17.259Z,16.66
2023-08-08T06:00:20.060Z,16.76
2023-08-08T06:01:22.323Z,16.87
2023-08-08T06:02:24.680Z,16.79
2023-08-08T06:03:27.241Z,16.72
2023-08-08T06:04:29.581Z,16.66
2023-08-08T06:05:32.072Z,16.62
2023-08-08T06:06:34.372Z,16.58
2023-08-08T06:07:36.591Z,16.73
2023-08-08T06:08:38.827Z,17.07
2023-08-08T06:09:41.330Z,17.37
2023-08-08T06:10:43.944Z,17.94
2023-08-08T06:11:46.224Z,18.45
2023-08-08T06:12:48.605Z,18.69
2023-08-08T06:13:50.857Z,18.17
2023-08-08T06:14:53.130Z,18.01
2023-08-08T06:15:55.835Z,18.27
2023-08-08T06:16:58.086Z,18.42
2023-08-08T06:18:01.038Z,18.80
2023-08-08T06:19:04.190Z,18.95
2023-08-08T06:20:08.154Z,18.71
2023-08-08T06:21:10.958Z,18.85
2023-08-08T06:22:13.524Z,19.25
2023-08-08T06:23:16.364Z,19.65
2023-08-08T06:24:18.895Z,20.01
2023-08-08T06:25:21.368Z,20.41
2023-08-08T06:26:24.315Z,20.78
2023-08-08T06:27:26.591Z,21.09
2023-08-08T06:28:28.808Z,21.33
2023-08-08T06:29:31.966Z,21.46
2023-08-08T06:30:34.714Z,21.69
2023-08-08T06:31:37.198Z,21.55
2023-08-08T06:32:39.477Z,21.43
2023-08-08T06:33:42.014Z,21.27
2023-08-08T06:34:44.505Z,20.88
2023-08-08T06:35:47.055Z,20.60
2023-08-08T06:36:49.498Z,20.21
2023-08-08T06:37:51.735Z,19.80
2023-08-08T06:38:54.218Z,18.95
2023-08-08T06:39:56.772Z,18.67
2023-08-08T06:40:59.225Z,18.36
2023-08-08T06:42:01.787Z,18.84
2023-08-08T06:43:15.064Z,19.33
2023-08-08T06:44:17.369Z,19.61
2023-08-08T06:45:20.203Z,19.65
2023-08-08T06:46:22.775Z,19.55
2023-08-08T06:47:25.047Z,19.68
2023-08-08T06:48:27.315Z,19.93
2023-08-08T06:49:29.732Z,19.94
2023-08-08T06:50:32.016Z,19.88
2023-08-08T06:51:34.627Z,19.78
2023-08-08T06:52:36.907Z,19.65
2023-08-08T06:53:39.622Z,19.52
2023-08-08T06:54:41.851Z,19.34
2023-08-08T06:55:44.250Z,19.16
2023-08-08T06:56:46.867Z,19.04
2023-08-08T06:57:49.054Z,19.05
2023-08-08T06:58:51.241Z,18.99
2023-08-08T06:59:54.189Z,18.83
2023-08-08T07:00:56.573Z,18.76
2023-08-08T07:01:59.364Z,18.81
2023-08-08T07:03:02.601Z,18.79
2023-08-08T07:04:05.018Z,18.63
2023-08-08T07:05:08.034Z,18.42
2023-08-08T07:06:11.068Z,18.31
2023-08-08T07:07:13.503Z,18.20
2023-08-08T07:08:15.857Z,18.27
2023-08-08T07:09:18.202Z,18.27
2023-08-08T07:10:20.861Z,18.27
2023-08-08T07:11:23.348Z,18.35
2023-08-08T07:12:25.807Z,18.31
2023-08-08T07:13:28.593Z,18.33
2023-08-08T07:14:31.172Z,18.25
2023-08-08T07:15:33.487Z,18.17
2023-08-08T07:16:35.967Z,18.26
2023-08-08T07:17:38.529Z,18.37
2023-08-08T07:18:40.839Z,18.36
2023-08-08T07:19:43.079Z,18.38
2023-08-08T07:20:45.486Z,18.35
2023-08-08T07:21:48.160Z,18.46
2023-08-08T07:22:50.409Z,18.43
2023-08-08T07:23:53.178Z,18.50
2023-08-08T07:24:55.491Z,18.58
2023-08-08T07:25:57.917Z,18.59
2023-08-08T07:27:00.961Z,18.48
2023-08-08T07:28:03.673Z,18.47
2023-08-08T07:29:07.153Z,18.62
2023-08-08T07:30:09.905Z,18.74
2023-08-08T07:31:12.431Z,18.71
2023-08-08T07:32:14.927Z,18.81
2023-08-08T07:33:17.644Z,18.99
2023-08-08T07:34:20.555Z,19.23
2023-08-08T07:35:22.814Z,19.35
2023-08-08T07:36:25.115Z,19.54
2023-08-08T07:37:27.748Z,19.79
2023-08-08T07:38:29.982Z,19.95
2023-08-08T07:39:32.523Z,19.89
2023-08-08T07:40:34.914Z,19.72
2023-08-08T07:41:37.276Z,19.29
2023-08-08T07:42:39.917Z,19.04
2023-08-08T07:43:42.229Z,18.98
2023-08-08T07:44:44.726Z,18.74
2023-08-08T07:45:46.946Z,18.87
2023-08-08T07:46:49.236Z,18.89
2023-08-08T07:47:51.881Z,18.88
2023-08-08T07:48:54.109Z,19.12
2023-08-08T07:49:56.351Z,19.33
2023-08-08T07:50:58.815Z,19.65
2023-08-08T07:52:01.365Z,20.08
2023-08-08T07:53:04.353Z,20.53
2023-08-08T07:54:09.544Z,20.74
2023-08-08T07:55:11.841Z,20.79
2023-08-08T07:56:15.023Z,20.82
2023-08-08T07:57:17.259Z,20.36
2023-08-08T07:58:20.720Z,19.84
2023-08-08T07:59:24.974Z,19.65
2023-08-08T08:00:27.482Z,19.77
2023-08-08T08:01:30.518Z,19.77
2023-08-08T08:02:33.008Z,19.63
2023-08-08T08:03:42.959Z,19.66
2023-08-08T08:04:45.273Z,19.71
2023-08-08T08:05:47.830Z,19.63
2023-08-08T08:06:50.084Z,19.53
2023-08-08T08:07:52.715Z,18.92
2023-08-08T08:08:54.929Z,18.74
2023-08-08T08:09:57.191Z,18.82
2023-08-08T08:11:00.075Z,18.85
2023-08-08T08:12:02.457Z,18.95
2023-08-08T08:13:05.484Z,19.06
2023-08-08T08:14:07.868Z,19.02
2023-08-08T08:15:10.628Z,19.16
2023-08-08T08:16:13.068Z,19.26
2023-08-08T08:17:15.481Z,19.42
2023-08-08T08:18:19.724Z,19.67
2023-08-08T08:19:22.164Z,20.03
2023-08-08T08:20:24.661Z,19.97
2023-08-08T08:21:27.112Z,20.09
2023-08-08T08:22:29.339Z,20.13
2023-08-08T08:23:33.550Z,20.18
2023-08-08T08:24:35.963Z,20.40
2023-08-08T08:25:38.153Z,20.68
2023-08-08T08:26:40.585Z,20.79
2023-08-08T08:27:43.016Z,21.03
2023-08-08T08:28:45.433Z,21.24
2023-08-08T08:29:47.638Z,21.47
2023-08-08T08:30:50.766Z,21.53
2023-08-08T08:31:53.021Z,21.29
2023-08-08T08:32:55.264Z,21.08
2023-08-08T08:33:57.887Z,20.88
2023-08-08T08:35:00.351Z,20.96
2023-08-08T08:36:02.836Z,21.15
2023-08-08T08:37:05.092Z,21.34
2023-08-08T08:38:08.214Z,21.57
2023-08-08T08:39:10.559Z,21.84
2023-08-08T08:40:13.573Z,21.49
2023-08-08T08:41:19.693Z,21.20
2023-08-08T08:42:22.873Z,21.00
2023-08-08T08:43:26.193Z,20.45
2023-08-08T08:44:31.239Z,20.00
2023-08-08T08:45:38.196Z,19.96
2023-08-08T08:46:41.393Z,19.99
2023-08-08T08:47:47.262Z,20.02
2023-08-08T08:48:55.986Z,19.69
2023-08-08T08:49:58.767Z,19.40
2023-08-08T08:51:01.335Z,19.30
2023-08-08T08:52:05.978Z,19.08
2023-08-08T08:53:08.705Z,19.22
2023-08-08T08:54:12.279Z,19.49
2023-08-08T08:55:14.542Z,19.97
2023-08-08T08:56:18.011Z,20.20
2023-08-08T08:57:22.602Z,20.24
2023-08-08T08:58:26.087Z,20.40
2023-08-08T08:59:28.601Z,20.66
2023-08-08T09:00:31.767Z,20.62
2023-08-08T09:01:34.442Z,20.43
2023-08-08T09:02:37.834Z,20.60
2023-08-08T09:03:41.680Z,20.65
2023-08-08T09:04:44.277Z,21.18
2023-08-08T09:05:49.262Z,21.58
2023-08-08T09:06:52.307Z,21.47
2023-08-08T09:07:54.845Z,21.21
2023-08-08T09:09:03.338Z,21.18
2023-08-08T09:10:09.428Z,20.79
2023-08-08T09:11:12.065Z,20.56
2023-08-08T09:12:14.615Z,20.19
2023-08-08T09:13:18.258Z,19.82
2023-08-08T09:14:24.735Z,19.77
2023-08-08T09:15:31.616Z,19.89
2023-08-08T09:16:34.104Z,19.80
2023-08-08T09:17:46.585Z,20.08
2023-08-08T09:18:52.850Z,20.56
2023-08-08T09:19:56.319Z,20.50
2023-08-08T09:20:59.429Z,20.08
2023-08-08T09:22:02.958Z,20.06
2023-08-08T09:23:05.538Z,19.87
2023-08-08T09:24:08.421Z,19.83
2023-08-08T09:25:10.825Z,19.98
2023-08-08T09:26:15.144Z,19.80
2023-08-08T09:27:18.185Z,19.76
2023-08-08T09:28:20.665Z,19.98
2023-08-08T09:29:23.170Z,20.20
2023-08-08T09:30:26.991Z,20.63
2023-08-08T09:31:29.604Z,20.99
2023-08-08T09:32:32.942Z,21.03
2023-08-08T09:33:35.498Z,20.42
2023-08-08T09:34:38.021Z,19.80
2023-08-08T09:35:40.563Z,19.70
2023-08-08T09:36:43.033Z,19.78
2023-08-08T09:37:45.341Z,19.79
2023-08-08T09:38:47.834Z,20.03
2023-08-08T09:40:00.838Z,20.17
2023-08-08T09:41:03.295Z,20.38
2023-08-08T09:42:06.051Z,20.76
2023-08-08T09:43:09.538Z,21.23
2023-08-08T09:44:12.046Z,21.51
2023-08-08T09:45:14.451Z,21.82
2023-08-08T09:46:17.161Z,21.51
2023-08-08T09:47:20.896Z,21.57
2023-08-08T09:48:30.205Z,21.68
2023-08-08T09:49:35.524Z,21.72
2023-08-08T09:50:39.016Z,21.64
2023-08-08T09:51:41.430Z,21.65
2023-08-08T09:52:44.767Z,21.39
2023-08-08T09:53:48.296Z,21.32
2023-08-08T09:54:51.543Z,21.42
2023-08-08T09:55:56.149Z,21.54
2023-08-08T09:56:59.653Z,21.51
2023-08-08T09:58:03.838Z,21.37
2023-08-08T09:59:07.487Z,21.09
2023-08-08T10:00:17.652Z,21.15
2023-08-08T10:01:21.564Z,21.09
2023-08-08T10:02:24.094Z,20.64
2023-08-08T10:03:27.695Z,20.44
2023-08-08T10:04:29.996Z,20.62
2023-08-08T10:05:32.946Z,20.88
2023-08-08T10:06:35.282Z,20.96
2023-08-08T10:07:37.597Z,21.06
2023-08-08T10:08:40.120Z,21.15
2023-08-08T10:09:42.871Z,21.29
2023-08-08T10:10:50.759Z,21.56
2023-08-08T10:11:54.524Z,21.56
2023-08-08T10:12:56.772Z,21.77
2023-08-08T10:14:01.392Z,21.84
2023-08-08T10:15:04.756Z,21.95
2023-08-08T10:16:10.439Z,22.01
2023-08-08T10:17:16.758Z,21.90
2023-08-08T10:18:20.194Z,21.86
2023-08-08T10:19:24.317Z,22.03
2023-08-08T10:20:36.682Z,22.02
2023-08-08T10:21:43.043Z,21.94
2023-08-08T10:22:48.092Z,21.96
2023-08-08T10:23:50.849Z,21.99
2023-08-08T10:24:55.024Z,22.01
2023-08-08T10:25:57.619Z,21.97
2023-08-08T10:27:03.150Z,21.92
2023-08-08T10:28:26.222Z,21.83
2023-08-08T10:29:32.500Z,22.05
2023-08-08T10:30:45.686Z,22.33
2023-08-08T10:32:02.779Z,22.54
2023-08-08T10:33:05.599Z,22.58
2023-08-08T10:34:08.565Z,22.65
2023-08-08T10:35:13.087Z,22.74
2023-08-08T10:36:15.339Z,22.75
2023-08-08T10:37:21.285Z,22.48
2023-08-08T10:38:28.014Z,22.51
2023-08-08T10:39:31.747Z,21.98
2023-08-08T10:40:34.465Z,21.74
2023-08-08T10:41:46.891Z,21.67
2023-08-08T10:42:49.168Z,21.59
2023-08-08T10:43:52.802Z,21.76
2023-08-08T10:44:57.282Z,21.98
2023-08-08T10:46:12.882Z,22.13
2023-08-08T10:47:16.026Z,22.02
2023-08-08T10:48:21.318Z,22.03
2023-08-08T10:49:24.122Z,22.11
2023-08-08T10:50:26.693Z,22.07
2023-08-08T10:51:44.087Z,22.08
2023-08-08T10:52:53.671Z,21.71
2023-08-08T10:53:56.922Z,21.64
2023-08-08T10:54:59.031Z,21.65
2023-08-08T10:56:05.229Z,21.73
2023-08-08T10:57:17.187Z,21.81
2023-08-08T10:58:21.140Z,21.99
2023-08-08T10:59:25.062Z,22.06
2023-08-08T11:00:32.684Z,22.02
2023-08-08T11:01:35.893Z,21.86
2023-08-08T11:02:39.911Z,21.98
2023-08-08T11:03:42.690Z,21.88
2023-08-08T11:04:45.758Z,21.68
2023-08-08T11:05:52.311Z,21.50
2023-08-08T11:06:55.546Z,21.27
2023-08-08T11:07:59.151Z,21.13
2023-08-08T11:09:02.424Z,21.16
2023-08-08T11:10:05.263Z,21.20
2023-08-08T11:11:08.089Z,21.18
2023-08-08T11:12:17.014Z,21.11
2023-08-08T11:13:19.438Z,21.19
2023-08-08T11:14:23.196Z,21.28
2023-08-08T11:15:25.936Z,21.24
2023-08-08T11:16:28.475Z,21.24
2023-08-08T11:17:31.215Z,21.28
2023-08-08T11:18:33.696Z,21.35
2023-08-08T11:19:42.465Z,21.41
2023-08-08T11:20:45.277Z,21.37
2023-08-08T11:21:49.353Z,21.35
2023-08-08T11:22:56.068Z,21.41
2023-08-08T11:23:58.935Z,21.34
2023-08-08T11:25:04.594Z,21.35
2023-08-08T11:27:12.791Z,21.27
2023-08-08T11:28:16.124Z,21.12
2023-08-08T11:29:18.423Z,21.12
2023-08-08T11:30:22.208Z,21.20
2023-08-08T11:31:26.348Z,21.36
2023-08-08T11:32:29.419Z,21.47
2023-08-08T11:33:32.661Z,21.55
2023-08-08T11:34:34.937Z,21.63
2023-08-08T11:35:37.183Z,21.45
2023-08-08T11:36:40.189Z,21.36
2023-08-08T11:37:42.665Z,21.34
2023-08-08T11:38:45.591Z,21.43
2023-08-08T11:39:48.449Z,21.46
2023-08-08T11:40:51.114Z,21.56
2023-08-08T11:41:53.948Z,21.61
2023-08-08T11:43:00.430Z,21.58
2023-08-08T11:44:06.395Z,21.61
2023-08-08T11:45:12.423Z,21.68
2023-08-08T11:46:16.350Z,21.50
2023-08-08T11:47:19.115Z,21.56
2023-08-08T11:48:22.406Z,21.61
2023-08-08T11:49:24.624Z,21.75
2023-08-08T11:50:28.527Z,21.79
2023-08-08T11:51:30.978Z,21.68
2023-08-08T11:52:33.965Z,21.65
2023-08-08T11:53:39.407Z,21.71
2023-08-08T11:54:42.352Z,21.68
2023-08-08T11:55:45.728Z,21.67
2023-08-08T11:56:48.389Z,21.66
2023-08-08T11:57:51.121Z,21.66
2023-08-08T11:58:53.640Z,21.71
2023-08-08T11:59:56.014Z,21.75
2023-08-08T12:00:58.586Z,21.72
2023-08-08T12:02:01.976Z,21.56
2023-08-08T12:03:05.877Z,21.56
2023-08-08T12:04:10.211Z,21.61
2023-08-08T12:05:18.254Z,21.74
2023-08-08T12:06:21.445Z,21.72
2023-08-08T12:07:24.553Z,21.82
2023-08-08T12:08:31.274Z,22.04
2023-08-08T12:09:34.395Z,22.18
2023-08-08T12:10:36.677Z,22.30
2023-08-08T12:11:40.726Z,22.42
2023-08-08T12:13:50.696Z,22.50
2023-08-08T12:17:07.698Z,22.29
2023-08-08T12:18:10.030Z,22.35
2023-08-08T12:19:13.948Z,22.44
2023-08-08T12:20:16.727Z,22.46
2023-08-08T12:21:18.956Z,22.45
2023-08-08T12:22:21.507Z,22.45
2023-08-08T12:23:23.725Z,22.53
2023-08-08T12:24:26.356Z,22.49
2023-08-08T12:25:29.036Z,22.36
2023-08-08T12:26:31.345Z,22.22
2023-08-08T12:27:33.740Z,22.19
2023-08-08T12:28:36.240Z,22.20
2023-08-08T12:29:38.736Z,22.09
2023-08-08T12:30:41.017Z,21.87
2023-08-08T12:31:43.585Z,21.79
2023-08-08T12:32:45.964Z,21.82
2023-08-08T12:33:49.873Z,21.77
2023-08-08T12:34:52.655Z,21.81
2023-08-08T12:35:54.949Z,21.65
2023-08-08T12:36:57.343Z,21.41
2023-08-08T12:37:59.606Z,21.20
2023-08-08T12:39:01.964Z,21.21
2023-08-08T12:40:06.134Z,21.31
2023-08-08T12:41:12.109Z,21.43
2023-08-08T12:42:14.451Z,21.19
2023-08-08T12:43:19.930Z,21.14
2023-08-08T12:44:22.179Z,21.20
2023-08-08T12:45:25.077Z,21.25
2023-08-08T12:46:27.329Z,21.20
2023-08-08T12:47:30.603Z,21.36
2023-08-08T12:48:33.154Z,21.43
2023-08-08T12:49:35.462Z,21.53
2023-08-08T12:50:38.773Z,21.75
2023-08-08T12:51:40.996Z,21.87
2023-08-08T12:52:43.247Z,21.87
2023-08-08T12:53:45.883Z,21.89
2023-08-08T12:54:48.363Z,21.97
2023-08-08T12:55:50.601Z,21.94
2023-08-08T12:56:53.192Z,21.99
2023-08-08T12:57:55.694Z,22.12
2023-08-08T12:58:58.137Z,22.19
2023-08-08T13:00:00.734Z,22.19
2023-08-08T13:01:03.060Z,22.24
2023-08-08T13:02:05.713Z,22.19
2023-08-08T13:03:08.864Z,22.19
2023-08-08T13:04:19.554Z,22.23
2023-08-08T13:05:22.589Z,22.08
2023-08-08T13:06:24.866Z,21.89
2023-08-08T13:07:27.059Z,21.84
2023-08-08T13:08:29.634Z,21.75
2023-08-08T13:09:31.986Z,21.90
2023-08-08T13:10:34.698Z,22.00
2023-08-08T13:11:36.948Z,22.06
2023-08-08T13:12:39.196Z,22.24
2023-08-08T13:13:42.206Z,22.43
2023-08-08T13:14:44.884Z,22.39
2023-08-08T13:15:48.507Z,22.39
2023-08-08T13:16:51.189Z,22.57
2023-08-08T13:17:53.470Z,22.63
2023-08-08T13:18:55.727Z,22.75
2023-08-08T13:19:58.675Z,22.89
2023-08-08T13:21:01.251Z,22.84
2023-08-08T13:22:04.142Z,22.89
2023-08-08T13:23:06.837Z,22.97
2023-08-08T13:24:11.121Z,22.91
2023-08-08T13:25:13.601Z,23.02
2023-08-08T13:26:16.584Z,22.88
2023-08-08T13:27:18.854Z,22.52
2023-08-08T13:28:21.331Z,22.55
2023-08-08T13:29:23.639Z,22.55
2023-08-08T13:30:26.357Z,22.38
2023-08-08T13:31:28.879Z,22.44
2023-08-08T13:32:31.394Z,22.53
2023-08-08T13:33:35.348Z,22.72
2023-08-08T13:34:37.761Z,22.63
2023-08-08T13:35:40.473Z,22.68
2023-08-08T13:36:43.103Z,22.62
2023-08-08T13:37:46.936Z,22.58
2023-08-08T13:38:49.157Z,22.39
2023-08-08T13:39:51.475Z,22.24
2023-08-08T13:40:54.675Z,21.93